Nearby METAR Reports

 

KDFW - Dallas/Ft Worth, Texas, USA
Distance from station: NE 8mi, 14km
Updated: 03/24/2019 22:10pm
Thunderstorm rain, Mostly cloudy
Thunderstorm rain, Mostly cloudy
 Wind from WSW
Wind: WSW 14 mph , 22 km/h
Temperature: 72°F , 22°C
Dew Point: 63°F , 17°C
Humidity: 73%
Barometer: 30.00 inHg , 1015.9 hPa
Summary: Thunderstorm Rain
Clouds: Mostly cloudy
Visibility: 3 miles , 5 km
Cloud details: Partly cloudy 4500 ft
Mostly cloudy 8000 ft
Mostly cloudy 17000 ft
Mostly cloudy 25000 ft
2019/03/25 03:10 KDFW 250310Z 24012KT 3SM TSRA SCT045CB BKN080 BKN170 BKN250 22/17 A3000 RMK AO2 LTG DSNT NE TSB04 PRESRR FRQ LTGICCG SW-W TS SW-W MOV E GR 1/2 P0001 T02220172
KFTW - Fort Worth, Texas, USA
Distance from station: W 13mi, 21km
Updated: 03/24/2019 22:08pm
Mostly cloudy
Mostly cloudy
 Wind from calm
Wind: Calm
Temperature: 66°F , 19°C
Dew Point: 61°F , 16°C
Humidity: 83%
Barometer: 30.01 inHg , 1016.3 hPa
Clouds: Mostly cloudy
Visibility: 10 miles , 16 km
Cloud details: Few Clouds 2300 ft
Mostly cloudy 5000 ft
Mostly cloudy 8000 ft
2019/03/25 03:08 KFTW 250308Z 00000KT 10SM FEW023 BKN050 BKN080 19/16 A3001 RMK AO2 LTG DSNT E RAE0259 TSE07 P0000 T01890156
 
KAFW - Ft Worth/Allianc, Texas, USA
Distance from station: NW 14mi, 22km
Updated: 03/24/2019 21:53pm
Thunderstorm, Mostly cloudy
Thunderstorm, Mostly cloudy
 Wind from NW
Wind: NW 3 mph , 6 km/h
Temperature: 72°F , 22°C
Dew Point: 59°F , 15°C
Humidity: 65%
Barometer: 30.00 inHg , 1015.9 hPa
Summary: Thunderstorm
Clouds: Mostly cloudy
Visibility: 10 miles , 16 km
Cloud details: Mostly cloudy 5500 ft
Mostly cloudy 7000 ft
Mostly cloudy 25000 ft
2019/03/25 02:53 KAFW 250253Z 32003KT 10SM TS BKN055CB BKN070 BKN250 22/15 A3000 RMK AO2 LTG DSNT S SLP150 OCNL LTGIC S TS S MOV E 60015 T02170150 51033 $
KDAL - Dallas/Love Fld, Texas, USA
Distance from station: E 17mi, 27km
Updated: 03/24/2019 22:16pm
Light thunderstorm, Rain, Mostly cloudy
Light thunderstorm, Rain, Mostly cloudy
 Wind from WNW
Wind: WNW 5 mph , 7 km/h
Temperature: 72°F , 22°C
Dew Point: 64°F , 18°C
Humidity: 78%
Barometer: 30.00 inHg , 1015.9 hPa
Summary: Light thunderstorm, Rain
Clouds: Mostly cloudy
Visibility: 9 miles , 14 km
Cloud details: Few Clouds 6000 ft
Mostly cloudy 13000 ft
Mostly cloudy 23000 ft
2019/03/25 03:16 KDAL 250316Z 29004KT 9SM -TSRA FEW060CB BKN130 BKN230 22/18 A3000 RMK AO2 RAB07 TSB16 CONS LTGICCC W-NW AND DSNT NE TS W-NW MOV E CB DSNT NE MOV SE P0000 T02220178
 
KNFW - Fort Worth Nas, Texas, USA
Distance from station: WSW 17mi, 28km
Updated: 03/24/2019 22:09pm
Mostly cloudy
Mostly cloudy
 Wind from calm
Wind: Calm
Temperature: 66°F , 19°C
Dew Point: 61°F , 16°C
Humidity: 83%
Barometer: 30.01 inHg , 1016.3 hPa
Clouds: Mostly cloudy
Visibility: 10 miles , 16 km
Cloud details: Few Clouds 2700 ft
Partly cloudy 4800 ft
Mostly cloudy 9000 ft
2019/03/25 03:09 KNFW 250309Z AUTO 00000KT 10SM FEW027 SCT048 BKN090 19/16 A3001 RMK AO2 RAE0256 TSE03 P0000 T01940161 VISNO N $
KRBD - Dallas/Redbird, Texas, USA
Distance from station: ESE 19mi, 30km
Updated: 03/24/2019 21:53pm
Clear
Clear
 Wind from S
Wind: S 8 mph , 13 km/h
Temperature: 72°F , 22°C
Dew Point: 61°F , 16°C
Humidity: 69%
Barometer: 29.98 inHg , 1015.2 hPa
Clouds: Clear
Visibility: 10 miles , 16 km
2019/03/25 02:53 KRBD 250253Z AUTO 19007KT 10SM CLR 22/16 A2998 RMK AO2 LTG DSNT W AND NW SLP144 T02220156 53017
 
KFWS - Fort Worth/Spinks, Texas, USA
Distance from station: SSW 21mi, 33km
Updated: 03/24/2019 22:15pm
Mostly cloudy
Mostly cloudy
 Wind from WNW
Wind: WNW 9 mph , 15 km/h
Temperature: 72°F , 22°C
Dew Point: 63°F , 17°C
Humidity: 73%
Barometer: 30.03 inHg , 1016.9 hPa
Clouds: Mostly cloudy
Visibility: 10 miles , 16 km
Cloud details: Partly cloudy 5000 ft
Partly cloudy 7000 ft
Mostly cloudy 8000 ft
2019/03/25 03:15 KFWS 250315Z AUTO 29008KT 10SM SCT050 SCT070 BKN080 22/17 A3003 RMK AO2 LTG DSNT N T02200165
KADS - Dallas/Addison, Texas, USA
Distance from station: ENE 21mi, 34km
Updated: 03/24/2019 21:47pm
Overcast
Overcast
 Wind from S
Wind: S 5 mph , 7 km/h
Temperature: 72°F , 22°C
Dew Point: 63°F , 17°C
Humidity: 73%
Barometer: 30.00 inHg , 1015.9 hPa
Clouds: Overcast
Visibility: 10 miles , 16 km
Cloud details: Overcast 4800 ft
2019/03/25 02:47 KADS 250247Z 17004KT 10SM OVC048 22/17 A3000 RMK LGT VC
 
KDTO - Denton, Texas, USA
Distance from station: N 26mi, 41km
Updated: 03/24/2019 21:53pm
Mostly cloudy
Mostly cloudy
 Wind from N
Wind: N 6 mph , 9 km/h
Temperature: 66°F , 19°C
Dew Point: 54°F , 12°C
Humidity: 64%
Barometer: 30.00 inHg , 1015.9 hPa
Clouds: Mostly cloudy
Visibility: 10 miles , 16 km
Cloud details: Mostly cloudy 6000 ft
2019/03/25 02:53 KDTO 250253Z AUTO 01005KT 10SM BKN060 19/12 A3000 RMK AO2 LTG DSNT S AND SW SLP153 T01940117 53029
KLUD - Decatur, Texas, USA
Distance from station: NW 39mi, 62km
Updated: 03/24/2019 22:15pm
Mostly cloudy
Mostly cloudy
 Wind from N
Wind: N 5 mph , 7 km/h
Temperature: 68°F , 20°C
Dew Point: 50°F , 10°C
Humidity: 53%
Barometer: 30.03 inHg , 1016.9 hPa
Clouds: Mostly cloudy
Visibility: 10 miles , 16 km
Cloud details: Mostly cloudy 5500 ft
2019/03/25 03:15 KLUD 250315Z AUTO 35004KT 10SM BKN055 20/10 A3003 RMK AO2 T01950100
 
KSPS - Wichita Falls/Sheppard AFB, Texas, USA
Distance from station: NW 111mi, 179km
Updated: 03/24/2019 21:52pm
Clear
Clear
 Wind from N
Wind: N 13 mph , 20 km/h
Temperature: 57°F , 14°C
Dew Point: 50°F , 10°C
Humidity: 77%
Barometer: 30.04 inHg , 1017.3 hPa
Clouds: Clear
Visibility: 10 miles , 16 km
2019/03/25 02:52 KSPS 250252Z AUTO 01011KT 10SM CLR 14/10 A3004 RMK AO2 SLP167 T01390100 53019 $